Terminal Aerodrome Forecast
Issued by NWS

Home | Current Version | Previous Version | Graphics & Text | Print | Product List | Glossary On
Versions: 1 2 3 4 5 6 7 8 9 10 11 12 13 14 15 16
000
FTUS43 KFGF 240400 AAB
TAFBJI
TAF AMD
KBJI 240433Z 2405/2424 12006KT P6SM -RA OVC010
      TEMPO 2405/2406 3SM -RASN BR OVC004
     FM240600 14013KT P6SM -RA OVC025
     FM241000 11010KT P6SM OVC020=

USA.gov is the U.S. government's official web portal to all federal, state and local government web resources and services.